Time;durP1;ratioP1;P1;durP2;ratioP2;P2;SDS_P1;SDS_P2;PMS_P1;PMS_P2;Temp;Humidity;BMP_temperature;BMP_pressure;BME280_temperature;BME280_humidity;BME280_pressure;Samples;Min_cycle;Max_cycle;Signal;HPM_P1;HPM_P2
2021/11/29 00:00:09;;;;;;;4.10;3.73;;;;;18.90;99056.00;;;;2079593;28;20206;-47
2021/11/29 00:01:11;;;;;;;4.30;3.63;;;;;18.90;99054.00;;;;2078690;28;20892;-44
2021/11/29 00:02:13;;;;;;;4.32;3.92;;;;;18.90;99055.00;;;;2079342;28;20657;-46
2021/11/29 00:03:14;;;;;;;3.90;3.55;;;;;18.90;99053.00;;;;2079627;28;20343;-44
2021/11/29 00:04:15;;;;;;;4.25;3.95;;;;;18.90;99055.00;;;;2078895;28;20230;-46
2021/11/29 00:05:16;;;;;;;4.63;4.20;;;;;18.90;99058.00;;;;2078950;28;20701;-48
2021/11/29 00:06:17;;;;;;;3.92;3.55;;;;;18.90;99057.00;;;;2070679;28;20306;-48
2021/11/29 00:07:18;;;;;;;4.50;4.10;;;;;18.90;99051.00;;;;2070587;28;20596;-44
2021/11/29 00:08:18;;;;;;;4.10;3.80;;;;;18.90;99057.00;;;;2079698;28;20237;-44
2021/11/29 00:09:18;;;;;;;4.00;3.60;;;;;18.90;99054.00;;;;2079798;28;20224;-47
2021/11/29 00:10:19;;;;;;;4.23;3.83;;;;;18.90;99060.00;;;;2079085;28;20275;-45
2021/11/29 00:11:20;;;;;;;3.80;3.50;;;;;18.90;99052.00;;;;2078137;28;20747;-44
2021/11/29 00:12:20;;;;;;;4.37;4.07;;;;;18.90;99058.00;;;;2077135;28;20225;-45
2021/11/29 00:13:20;;;;;;;4.37;3.57;;;;;18.90;99057.00;;;;2079492;28;20655;-44
2021/11/29 00:14:21;;;;;;;4.80;4.23;;;;;18.90;99071.00;;;;2078855;28;20280;-46
2021/11/29 00:15:21;;;;;;;4.17;3.77;;;;;18.90;99063.00;;;;2079087;28;20225;-45
2021/11/29 00:16:22;;;;;;;4.23;3.83;;;;;18.90;99066.00;;;;2079734;28;20209;-44
2021/11/29 00:17:22;;;;;;;4.20;3.80;;;;;18.90;99069.00;;;;2075302;28;20773;-43
2021/11/29 00:18:22;;;;;;;4.83;4.33;;;;;18.90;99074.00;;;;2079634;28;20597;-44
2021/11/29 00:19:23;;;;;;;4.03;3.73;;;;;18.90;99077.00;;;;2079446;28;20614;-43
2021/11/29 00:20:23;;;;;;;4.07;3.67;;;;;18.90;99073.00;;;;2077887;28;20300;-47
2021/11/29 00:21:23;;;;;;;4.50;4.10;;;;;18.90;99076.00;;;;2078680;28;20214;-45
2021/11/29 00:22:24;;;;;;;4.50;4.10;;;;;18.90;99078.00;;;;2079581;28;20225;-44
2021/11/29 00:23:24;;;;;;;4.10;3.70;;;;;18.80;99080.00;;;;2079480;28;20243;-45
2021/11/29 00:24:25;;;;;;;4.70;4.30;;;;;18.80;99080.00;;;;2079094;28;20243;-45
2021/11/29 00:25:25;;;;;;;3.60;3.30;;;;;18.90;99067.00;;;;2079374;28;20291;-44
2021/11/29 00:26:27;;;;;;;4.23;3.70;;;;;18.80;99071.00;;;;2079490;28;20218;-45
2021/11/29 00:27:27;;;;;;;4.35;3.95;;;;;18.80;99086.00;;;;2079741;28;20303;-44
2021/11/29 00:28:27;;;;;;;4.40;4.00;;;;;18.80;99071.00;;;;2079451;28;20271;-47
2021/11/29 00:29:28;;;;;;;3.80;3.20;;;;;18.80;99078.00;;;;2077583;28;20220;-47
2021/11/29 00:30:28;;;;;;;4.10;3.70;;;;;18.80;99079.00;;;;2077757;28;20229;-45
2021/11/29 00:31:29;;;;;;;4.17;3.40;;;;;18.80;99072.00;;;;2079559;28;20275;-44
2021/11/29 00:32:29;;;;;;;4.80;4.30;;;;;18.80;99078.00;;;;2076974;28;20218;-46
2021/11/29 00:33:29;;;;;;;4.77;4.37;;;;;18.80;99078.00;;;;2071462;28;20214;-45
2021/11/29 00:34:30;;;;;;;4.40;4.00;;;;;18.80;99081.00;;;;2069950;28;20578;-47
2021/11/29 00:35:30;;;;;;;4.47;4.07;;;;;18.80;99081.00;;;;2070576;28;20678;-49
2021/11/29 00:36:31;;;;;;;4.27;3.87;;;;;18.80;99087.00;;;;2070251;28;20284;-47
2021/11/29 00:37:31;;;;;;;5.00;4.17;;;;;18.80;99075.00;;;;2070579;28;20575;-44
2021/11/29 00:38:32;;;;;;;4.20;3.80;;;;;18.80;99093.00;;;;2070695;28;20268;-44
2021/11/29 00:39:32;;;;;;;3.90;3.60;;;;;18.80;99091.00;;;;2070875;28;20206;-43
2021/11/29 00:40:33;;;;;;;4.37;3.97;;;;;18.80;99086.00;;;;2070290;28;20220;-48
2021/11/29 00:41:34;;;;;;;4.03;3.65;;;;;18.80;99086.00;;;;2078933;28;20205;-44
2021/11/29 00:42:34;;;;;;;4.07;3.67;;;;;18.80;99084.00;;;;2078943;28;20208;-44
2021/11/29 00:43:34;;;;;;;4.40;4.00;;;;;18.80;99095.00;;;;2078630;28;20246;-47
2021/11/29 00:44:35;;;;;;;3.83;3.53;;;;;18.80;99096.00;;;;2076088;28;20217;-47
2021/11/29 00:45:35;;;;;;;4.13;3.80;;;;;18.80;99093.00;;;;2078720;28;20213;-47
2021/11/29 00:46:36;;;;;;;4.30;3.90;;;;;18.80;99093.00;;;;2078400;28;20313;-45
2021/11/29 00:47:36;;;;;;;3.63;3.33;;;;;18.80;99090.00;;;;2076419;28;20214;-45
2021/11/29 00:48:36;;;;;;;4.30;3.80;;;;;18.80;99095.00;;;;2078672;28;20213;-46
2021/11/29 00:49:37;;;;;;;4.30;3.77;;;;;18.80;99096.00;;;;2079162;28;20209;-45
2021/11/29 00:50:38;;;;;;;4.07;3.63;;;;;18.80;99094.00;;;;2077938;28;20299;-46
2021/11/29 00:51:38;;;;;;;4.05;3.72;;;;;18.80;99100.00;;;;2076934;28;20213;-46
2021/11/29 00:52:40;;;;;;;4.53;4.13;;;;;18.80;99086.00;;;;2078450;28;20225;-44
2021/11/29 00:53:42;;;;;;;3.55;3.25;;;;;18.80;99096.00;;;;2078778;28;20209;-44
2021/11/29 00:54:44;;;;;;;3.72;3.40;;;;;18.80;99094.00;;;;2076544;28;20256;-45
2021/11/29 00:55:45;;;;;;;3.95;3.50;;;;;18.80;99095.00;;;;2069954;28;20733;-45
2021/11/29 00:56:45;;;;;;;4.63;4.23;;;;;18.80;99095.00;;;;2062013;28;20223;-47
2021/11/29 00:57:46;;;;;;;3.60;3.30;;;;;18.70;99098.00;;;;2077933;28;20210;-46
2021/11/29 00:58:46;;;;;;;4.13;3.73;;;;;18.70;99101.00;;;;2073578;28;20221;-46
2021/11/29 00:59:47;;;;;;;4.30;3.63;;;;;18.70;99094.00;;;;2070974;28;20214;-44
2021/11/29 01:00:48;;;;;;;3.87;3.50;;;;;18.70;99108.00;;;;2072333;28;20222;-44
2021/11/29 01:01:49;;;;;;;3.80;3.40;;;;;18.70;99099.00;;;;2078221;28;20525;-45
2021/11/29 01:02:49;;;;;;;4.40;4.00;;;;;18.80;99096.00;;;;2079312;28;20613;-44
2021/11/29 01:03:50;;;;;;;4.03;3.70;;;;;18.80;99096.00;;;;2074417;28;20855;-47
2021/11/29 01:04:50;;;;;;;5.10;4.60;;;;;18.70;99101.00;;;;2067973;28;20586;-44
2021/11/29 01:05:50;;;;;;;3.87;3.50;;;;;18.70;99107.00;;;;2068704;28;20725;-44
2021/11/29 01:06:51;;;;;;;4.40;4.00;;;;;18.70;99104.00;;;;2071167;28;20237;-44
2021/11/29 01:07:51;;;;;;;4.43;3.90;;;;;18.70;99102.00;;;;2071184;28;20305;-45
2021/11/29 01:08:52;;;;;;;4.63;3.57;;;;;18.70;99106.00;;;;2070803;28;20741;-45
2021/11/29 01:09:52;;;;;;;3.93;3.63;;;;;18.70;99118.00;;;;2070463;28;20771;-45
2021/11/29 01:10:53;;;;;;;4.00;3.60;;;;;18.70;99113.00;;;;2069917;28;20210;-44
2021/11/29 01:11:53;;;;;;;4.33;3.60;;;;;18.70;99109.00;;;;2071044;28;20245;-44
2021/11/29 01:12:55;;;;;;;4.00;3.60;;;;;18.70;99108.00;;;;2070994;28;20237;-44
2021/11/29 01:13:55;;;;;;;3.80;3.40;;;;;18.70;99113.00;;;;2071165;28;20218;-46
2021/11/29 01:14:55;;;;;;;3.90;3.40;;;;;18.70;99114.00;;;;2070761;28;20230;-44
2021/11/29 01:15:57;;;;;;;4.07;3.70;;;;;18.70;99109.00;;;;2070415;28;20242;-44
2021/11/29 01:16:57;;;;;;;4.57;3.90;;;;;18.70;99110.00;;;;2070046;28;20623;-45
2021/11/29 01:18:00;;;;;;;4.23;3.90;;;;;18.70;99107.00;;;;2071006;28;20222;-47
2021/11/29 01:19:01;;;;;;;3.65;3.35;;;;;18.70;99121.00;;;;2071044;28;20696;-44
2021/11/29 01:20:03;;;;;;;4.17;3.50;;;;;18.70;99122.00;;;;2070327;28;20233;-45
2021/11/29 01:21:03;;;;;;;3.83;3.45;;;;;18.70;99116.00;;;;2070037;28;20214;-43
2021/11/29 01:22:04;;;;;;;3.60;3.30;;;;;18.70;99117.00;;;;2068458;28;20253;-44
2021/11/29 01:23:04;;;;;;;5.13;3.53;;;;;18.70;99123.00;;;;2070093;28;20248;-43
2021/11/29 01:24:05;;;;;;;3.87;3.57;;;;;18.70;99123.00;;;;2073487;28;20222;-44
2021/11/29 01:25:05;;;;;;;3.67;3.37;;;;;18.70;99116.00;;;;2077859;28;20245;-45
2021/11/29 01:26:06;;;;;;;4.17;3.77;;;;;18.70;99121.00;;;;2078236;28;20376;-44
2021/11/29 01:27:06;;;;;;;3.90;3.60;;;;;18.70;99118.00;;;;2078462;28;20830;-44
2021/11/29 01:28:07;;;;;;;3.40;3.10;;;;;18.70;99131.00;;;;2078494;28;20224;-47
2021/11/29 01:29:07;;;;;;;3.97;3.57;;;;;18.70;99120.00;;;;2071680;28;20303;-48
2021/11/29 01:30:08;;;;;;;3.60;3.20;;;;;18.70;99120.00;;;;2074265;28;20218;-48
2021/11/29 01:31:09;;;;;;;3.70;3.40;;;;;18.70;99126.00;;;;2069590;28;20229;-48
2021/11/29 01:32:09;;;;;;;3.92;3.55;;;;;18.70;99122.00;;;;2071062;28;20222;-45
2021/11/29 01:33:10;;;;;;;3.90;3.60;;;;;18.70;99122.00;;;;2070792;28;20722;-45
2021/11/29 01:34:10;;;;;;;3.30;2.90;;;;;18.70;99122.00;;;;2070671;28;20210;-44
2021/11/29 01:35:11;;;;;;;3.63;3.33;;;;;18.70;99123.00;;;;2070642;28;20217;-44
2021/11/29 01:36:11;;;;;;;3.60;3.30;;;;;18.70;99122.00;;;;2070899;28;20234;-43
2021/11/29 01:37:11;;;;;;;4.00;3.60;;;;;18.70;99126.00;;;;2070343;28;20305;-46
2021/11/29 01:38:12;;;;;;;3.83;3.40;;;;;18.70;99126.00;;;;2070301;28;20209;-45
2021/11/29 01:39:12;;;;;;;3.97;3.27;;;;;18.70;99121.00;;;;2072194;28;20678;-44
2021/11/29 01:40:13;;;;;;;3.23;2.90;;;;;18.70;99126.00;;;;2078247;28;20249;-44
2021/11/29 01:41:16;;;;;;;4.10;3.53;;;;;18.70;99123.00;;;;2077142;28;20218;-44
2021/11/29 01:42:16;;;;;;;3.90;3.50;;;;;18.70;99135.00;;;;2076563;28;20241;-43
2021/11/29 01:43:18;;;;;;;3.50;3.20;;;;;18.60;99129.00;;;;2077230;28;20228;-46
2021/11/29 01:44:19;;;;;;;3.88;3.50;;;;;18.70;99133.00;;;;2077406;28;20210;-44
2021/11/29 01:45:19;;;;;;;4.13;3.57;;;;;18.60;99131.00;;;;2077409;28;20237;-43
2021/11/29 01:46:20;;;;;;;3.37;2.87;;;;;18.60;99135.00;;;;2075946;28;20229;-47
2021/11/29 01:47:22;;;;;;;3.87;3.57;;;;;18.60;99139.00;;;;2078325;28;20229;-47
2021/11/29 01:48:23;;;;;;;4.45;3.63;;;;;18.60;99133.00;;;;2073171;28;20313;-48
2021/11/29 01:49:23;;;;;;;3.45;3.08;;;;;18.70;99135.00;;;;2069430;28;20610;-44
2021/11/29 01:50:24;;;;;;;3.53;3.17;;;;;18.70;99129.00;;;;2069101;28;20221;-44
2021/11/29 01:51:25;;;;;;;3.47;2.97;;;;;18.70;99142.00;;;;2069968;28;20693;-46
2021/11/29 01:52:25;;;;;;;3.70;3.40;;;;;18.70;99135.00;;;;2070451;28;20218;-48
2021/11/29 01:53:27;;;;;;;4.77;3.40;;;;;18.60;99136.00;;;;2074608;28;20451;-44
2021/11/29 01:54:29;;;;;;;3.40;3.10;;;;;18.70;99140.00;;;;2078156;28;20237;-47
2021/11/29 01:55:30;;;;;;;4.57;3.72;;;;;18.60;99144.00;;;;2072216;28;20221;-44
2021/11/29 01:56:30;;;;;;;3.13;2.83;;;;;18.60;99160.00;;;;2070686;28;20690;-43
2021/11/29 01:57:31;;;;;;;3.20;2.90;;;;;18.60;99151.00;;;;2070712;28;20218;-46
2021/11/29 01:58:32;;;;;;;3.67;3.37;;;;;18.60;99162.00;;;;2070689;28;20748;-45
2021/11/29 01:59:33;;;;;;;4.60;3.60;;;;;18.60;99155.00;;;;2070876;28;20229;-45
2021/11/29 02:00:38;;;;;;;4.07;3.78;;;;;18.60;99150.00;;;;2069843;28;20686;-43
2021/11/29 02:01:38;;;;;;;3.30;3.00;;;;;18.60;99150.00;;;;2077023;28;20232;-45
2021/11/29 02:02:39;;;;;;;2.97;2.77;;;;;18.60;99154.00;;;;2074748;28;20241;-47
2021/11/29 02:03:41;;;;;;;3.50;3.20;;;;;18.60;99160.00;;;;2069858;28;20709;-45
2021/11/29 02:04:41;;;;;;;3.50;3.20;;;;;18.60;99159.00;;;;2062086;28;20545;-45
2021/11/29 02:05:42;;;;;;;4.93;3.00;;;;;18.60;99155.00;;;;2070160;28;20293;-43
2021/11/29 02:06:42;;;;;;;3.67;3.37;;;;;18.60;99151.00;;;;2070806;28;20218;-45
2021/11/29 02:07:43;;;;;;;3.50;3.20;;;;;18.60;99153.00;;;;2070585;28;20233;-45
2021/11/29 02:08:43;;;;;;;3.67;3.27;;;;;18.60;99149.00;;;;2070499;28;20238;-46
2021/11/29 02:09:44;;;;;;;3.40;3.10;;;;;18.60;99148.00;;;;2070797;28;20214;-45
2021/11/29 02:10:44;;;;;;;3.60;3.30;;;;;18.60;99153.00;;;;2069048;28;20816;-45
2021/11/29 02:11:45;;;;;;;3.20;2.90;;;;;18.60;99146.00;;;;2070255;28;20222;-45
2021/11/29 02:12:45;;;;;;;3.70;3.27;;;;;18.60;99148.00;;;;2070892;28;20214;-46
2021/11/29 02:13:46;;;;;;;3.10;2.80;;;;;18.60;99147.00;;;;2070278;28;20222;-46
2021/11/29 02:14:48;;;;;;;3.17;2.67;;;;;18.60;99153.00;;;;2078700;28;20225;-45
2021/11/29 02:15:51;;;;;;;3.13;2.83;;;;;18.60;99151.00;;;;2077556;28;20212;-44
2021/11/29 02:16:52;;;;;;;3.15;2.80;;;;;18.60;99147.00;;;;2069771;28;20206;-44
2021/11/29 02:17:52;;;;;;;3.43;3.13;;;;;18.60;99149.00;;;;2069741;28;20210;-44
2021/11/29 02:18:53;;;;;;;3.47;3.17;;;;;18.60;99151.00;;;;2078579;28;20681;-46
2021/11/29 02:19:53;;;;;;;4.60;3.07;;;;;18.60;99151.00;;;;2078820;28;20210;-43
2021/11/29 02:21:15;;;;;;;3.33;3.03;;;;;18.60;99155.00;;;;2077689;28;20745;-44
2021/11/29 02:22:16;;;;;;;3.50;3.13;;;;;18.60;99159.00;;;;2078498;28;20300;-46
2021/11/29 02:23:16;;;;;;;3.10;2.80;;;;;18.60;99168.00;;;;2078545;28;20232;-45
2021/11/29 02:24:17;;;;;;;2.70;2.50;;;;;18.60;99169.00;;;;2078667;28;20209;-45
2021/11/29 02:25:21;;;;;;;4.53;2.77;;;;;18.60;99168.00;;;;2078692;28;20297;-47
2021/11/29 02:26:25;;;;;;;3.00;2.70;;;;;18.60;99161.00;;;;2078020;28;20233;-43
2021/11/29 02:27:25;;;;;;;3.80;3.33;;;;;18.60;99163.00;;;;2070026;28;20253;-44
2021/11/29 02:28:26;;;;;;;3.67;3.23;;;;;18.60;99168.00;;;;2070604;28;20214;-44
2021/11/29 02:29:27;;;;;;;3.33;3.03;;;;;18.60;99162.00;;;;2070429;28;20210;-45
2021/11/29 02:30:27;;;;;;;3.30;3.00;;;;;18.60;99161.00;;;;2076984;28;20213;-45
2021/11/29 02:31:33;;;;;;;3.80;3.33;;;;;18.60;99169.00;;;;2078393;28;20241;-47
2021/11/29 02:32:33;;;;;;;3.45;2.97;;;;;18.60;99166.00;;;;2078393;28;20720;-43
2021/11/29 02:33:34;;;;;;;3.40;2.70;;;;;18.60;99164.00;;;;2078620;28;20241;-43
2021/11/29 02:34:34;;;;;;;3.27;2.90;;;;;18.60;99170.00;;;;2078441;28;20222;-43
2021/11/29 02:35:34;;;;;;;3.97;3.30;;;;;18.60;99166.00;;;;2077739;28;20787;-45
2021/11/29 02:36:35;;;;;;;3.10;2.80;;;;;18.60;99167.00;;;;2077929;28;20229;-46
2021/11/29 02:37:35;;;;;;;2.90;2.60;;;;;18.60;99163.00;;;;2078672;28;20218;-46
2021/11/29 02:38:36;;;;;;;3.40;3.10;;;;;18.60;99160.00;;;;2067734;28;20324;-44
2021/11/29 02:39:36;;;;;;;3.10;2.80;;;;;18.60;99164.00;;;;2069555;28;20476;-45
2021/11/29 02:40:36;;;;;;;3.87;3.30;;;;;18.60;99165.00;;;;2077248;28;20213;-46
2021/11/29 02:41:37;;;;;;;2.90;2.53;;;;;18.60;99165.00;;;;2076857;28;20307;-47
2021/11/29 02:42:39;;;;;;;3.27;2.60;;;;;18.60;99171.00;;;;2077438;28;20232;-47
2021/11/29 02:43:40;;;;;;;3.00;2.70;;;;;18.60;99163.00;;;;2077227;28;20221;-44
2021/11/29 02:44:41;;;;;;;3.20;2.60;;;;;18.60;99164.00;;;;2077444;28;20689;-43
2021/11/29 02:45:42;;;;;;;3.75;3.10;;;;;18.60;99170.00;;;;2077562;28;20784;-43
2021/11/29 02:46:42;;;;;;;4.43;3.30;;;;;18.60;99160.00;;;;2076958;28;20217;-44
2021/11/29 02:47:43;;;;;;;3.47;2.70;;;;;18.60;99167.00;;;;2078088;28;20244;-47
2021/11/29 02:48:48;;;;;;;3.03;2.73;;;;;18.60;99167.00;;;;2078139;28;20670;-45
2021/11/29 02:49:49;;;;;;;3.22;2.92;;;;;18.60;99163.00;;;;2076968;28;20220;-47
2021/11/29 02:50:49;;;;;;;3.50;3.03;;;;;18.60;99160.00;;;;2076388;28;20292;-48
2021/11/29 02:52:01;;;;;;;3.00;2.80;;;;;18.60;99160.00;;;;2077899;28;20221;-45
2021/11/29 02:53:02;;;;;;;2.83;2.53;;;;;18.60;99156.00;;;;2078010;28;20209;-43
2021/11/29 02:54:08;;;;;;;3.13;2.78;;;;;18.60;99168.00;;;;2077965;28;20289;-44
2021/11/29 02:55:09;;;;;;;2.90;2.60;;;;;18.50;99159.00;;;;2073153;28;20203;-44
2021/11/29 02:56:09;;;;;;;3.40;3.07;;;;;18.50;99159.00;;;;2060442;28;20222;-46
2021/11/29 02:57:18;;;;;;;3.03;2.73;;;;;18.50;99162.00;;;;2070959;28;20453;-46
2021/11/29 02:58:18;;;;;;;3.03;2.72;;;;;18.50;99169.00;;;;2071438;28;20214;-44
2021/11/29 02:59:21;;;;;;;3.33;3.03;;;;;18.60;99167.00;;;;2070513;28;20224;-45
2021/11/29 03:00:21;;;;;;;4.00;2.88;;;;;18.50;99164.00;;;;2071062;28;20472;-47
2021/11/29 03:01:22;;;;;;;2.67;2.47;;;;;18.50;99176.00;;;;2071362;28;20210;-44
2021/11/29 03:02:22;;;;;;;2.60;2.40;;;;;18.60;99175.00;;;;2072098;28;20218;-45
2021/11/29 03:03:23;;;;;;;3.00;2.70;;;;;18.60;99152.00;;;;2075078;28;20213;-45
2021/11/29 03:04:25;;;;;;;3.20;2.63;;;;;18.60;99173.00;;;;2079659;28;20228;-44
2021/11/29 03:05:25;;;;;;;3.22;2.92;;;;;18.50;99164.00;;;;2080276;28;20222;-45
2021/11/29 03:06:26;;;;;;;2.70;2.50;;;;;18.50;99160.00;;;;2080304;28;20225;-43
2021/11/29 03:07:27;;;;;;;2.60;2.40;;;;;18.50;99164.00;;;;2079532;28;20255;-44
2021/11/29 03:08:27;;;;;;;2.87;2.50;;;;;18.50;99168.00;;;;2079268;28;21064;-45
2021/11/29 03:09:28;;;;;;;2.77;2.57;;;;;18.60;99170.00;;;;2079963;28;20511;-47
2021/11/29 03:10:28;;;;;;;3.87;2.80;;;;;18.50;99177.00;;;;2078420;28;20209;-44
2021/11/29 03:11:28;;;;;;;2.97;2.67;;;;;18.60;99176.00;;;;2079403;28;20359;-46
2021/11/29 03:12:29;;;;;;;2.70;2.33;;;;;18.60;99175.00;;;;2080102;28;20213;-47
2021/11/29 03:13:29;;;;;;;3.87;2.93;;;;;18.60;99180.00;;;;2080096;28;20217;-45
2021/11/29 03:14:29;;;;;;;4.03;2.93;;;;;18.50;99185.00;;;;2072841;28;20224;-43
2021/11/29 03:15:30;;;;;;;2.60;2.40;;;;;18.50;99168.00;;;;2069857;28;20222;-45
2021/11/29 03:16:30;;;;;;;2.90;2.70;;;;;18.50;99174.00;;;;2072074;28;20214;-45
2021/11/29 03:17:31;;;;;;;2.77;2.57;;;;;18.50;99179.00;;;;2072042;28;20229;-46
2021/11/29 03:18:33;;;;;;;2.97;2.67;;;;;18.50;99177.00;;;;2072167;28;20206;-46
2021/11/29 03:19:34;;;;;;;4.20;2.50;;;;;18.50;99180.00;;;;2069891;28;20222;-45
2021/11/29 03:20:35;;;;;;;3.03;2.72;;;;;18.50;99178.00;;;;2071118;28;20210;-48
2021/11/29 03:21:35;;;;;;;3.30;3.00;;;;;18.50;99170.00;;;;2071757;28;20614;-46
2021/11/29 03:22:36;;;;;;;3.20;2.70;;;;;18.50;99172.00;;;;2071909;28;20213;-45
2021/11/29 03:23:36;;;;;;;2.57;2.37;;;;;18.50;99182.00;;;;2077506;28;20216;-44
2021/11/29 03:24:38;;;;;;;3.10;2.80;;;;;18.50;99181.00;;;;2080135;28;20245;-44
2021/11/29 03:25:38;;;;;;;3.17;2.88;;;;;18.50;99176.00;;;;2077107;28;20256;-45
2021/11/29 03:26:39;;;;;;;2.60;2.37;;;;;18.50;99172.00;;;;2079471;28;20241;-43
2021/11/29 03:27:40;;;;;;;2.90;2.50;;;;;18.50;99169.00;;;;2080235;28;20634;-43
2021/11/29 03:28:41;;;;;;;3.47;2.70;;;;;18.50;99171.00;;;;2079984;28;20221;-45
2021/11/29 03:29:43;;;;;;;2.55;2.35;;;;;18.50;99176.00;;;;2079753;28;20715;-45
2021/11/29 03:30:43;;;;;;;3.60;2.78;;;;;18.50;99186.00;;;;2070407;28;20217;-45
2021/11/29 03:31:46;;;;;;;2.60;2.30;;;;;18.50;99185.00;;;;2067281;28;20292;-47
2021/11/29 03:32:46;;;;;;;3.10;2.55;;;;;18.60;99185.00;;;;2070017;28;20309;-45
2021/11/29 03:33:47;;;;;;;2.67;2.20;;;;;18.50;99182.00;;;;2071265;28;20228;-46
2021/11/29 03:34:47;;;;;;;2.77;2.57;;;;;18.60;99182.00;;;;2079799;28;20237;-45
2021/11/29 03:35:48;;;;;;;3.60;2.67;;;;;18.50;99191.00;;;;2079909;28;20228;-47
2021/11/29 03:36:49;;;;;;;2.93;2.63;;;;;18.50;99180.00;;;;2079952;28;20225;-45
2021/11/29 03:37:49;;;;;;;3.37;2.63;;;;;18.50;99180.00;;;;2071830;28;20305;-44
2021/11/29 03:38:49;;;;;;;2.53;2.30;;;;;18.50;99185.00;;;;2071797;28;21023;-46
2021/11/29 03:39:50;;;;;;;2.70;2.40;;;;;18.50;99186.00;;;;2071596;28;20217;-47
2021/11/29 03:40:50;;;;;;;2.80;2.60;;;;;18.50;99184.00;;;;2071106;28;20215;-46
2021/11/29 03:41:53;;;;;;;3.47;2.60;;;;;18.50;99184.00;;;;2071662;28;20321;-45
2021/11/29 03:42:55;;;;;;;2.55;2.35;;;;;18.50;99193.00;;;;2072527;28;20771;-45
2021/11/29 03:43:56;;;;;;;3.05;2.40;;;;;18.50;99200.00;;;;2079279;28;20240;-45
2021/11/29 03:44:57;;;;;;;2.60;2.37;;;;;18.50;99201.00;;;;2079196;28;20685;-43
2021/11/29 03:45:58;;;;;;;2.95;2.45;;;;;18.50;99160.00;;;;2079517;28;20364;-44
2021/11/29 03:46:58;;;;;;;2.47;2.27;;;;;18.50;99192.00;;;;2079242;28;20686;-47
2021/11/29 03:48:02;;;;;;;4.60;2.97;;;;;18.50;99185.00;;;;2079224;28;20284;-46
2021/11/29 03:49:04;;;;;;;2.55;2.35;;;;;18.50;99198.00;;;;2070973;28;20604;-45
2021/11/29 03:50:05;;;;;;;4.15;2.92;;;;;18.50;99200.00;;;;2062450;28;20439;-45
2021/11/29 03:51:05;;;;;;;3.03;2.70;;;;;18.50;99203.00;;;;2076740;28;20312;-45
2021/11/29 03:52:06;;;;;;;2.67;2.47;;;;;18.50;99208.00;;;;2079689;28;20448;-45
2021/11/29 03:53:07;;;;;;;2.87;2.57;;;;;18.50;99206.00;;;;2079893;28;20747;-45
2021/11/29 03:54:07;;;;;;;2.47;2.27;;;;;18.50;99204.00;;;;2079125;28;20205;-45
2021/11/29 03:55:08;;;;;;;2.80;2.60;;;;;18.50;99212.00;;;;2078324;28;20456;-45
2021/11/29 03:56:08;;;;;;;2.47;2.27;;;;;18.50;99217.00;;;;2079142;28;20685;-45
2021/11/29 03:57:09;;;;;;;2.50;2.30;;;;;18.50;99204.00;;;;2077174;28;20796;-46
2021/11/29 03:58:09;;;;;;;2.63;2.43;;;;;18.50;99213.00;;;;2078569;28;20218;-45
2021/11/29 03:59:10;;;;;;;2.43;2.20;;;;;18.50;99208.00;;;;2076687;28;20214;-45
2021/11/29 04:00:11;;;;;;;3.13;2.60;;;;;18.50;99206.00;;;;2078715;28;20544;-45
2021/11/29 04:01:11;;;;;;;3.15;2.55;;;;;18.50;99208.00;;;;2078686;28;20224;-45
2021/11/29 04:02:12;;;;;;;3.17;2.60;;;;;18.50;99208.00;;;;2078799;28;20672;-45
2021/11/29 04:03:12;;;;;;;2.60;2.40;;;;;18.50;99212.00;;;;2078179;28;20314;-45
2021/11/29 04:04:13;;;;;;;2.47;2.10;;;;;18.50;99217.00;;;;2078863;28;20225;-44
2021/11/29 04:05:13;;;;;;;2.60;2.37;;;;;18.50;99210.00;;;;2079515;28;20219;-45
2021/11/29 04:06:13;;;;;;;2.50;2.30;;;;;18.50;99214.00;;;;2079599;28;20224;-45
2021/11/29 04:07:14;;;;;;;2.67;2.47;;;;;18.50;99221.00;;;;2079085;28;20271;-45
2021/11/29 04:08:14;;;;;;;2.47;2.27;;;;;18.50;99213.00;;;;2079068;28;20205;-45
2021/11/29 04:09:15;;;;;;;2.83;2.63;;;;;18.50;99218.00;;;;2079173;28;20213;-45
2021/11/29 04:10:15;;;;;;;2.50;2.30;;;;;18.50;99202.00;;;;2078494;28;20210;-46
2021/11/29 04:11:16;;;;;;;2.47;2.27;;;;;18.50;99209.00;;;;2074162;28;20304;-46
2021/11/29 04:12:16;;;;;;;2.93;2.60;;;;;18.50;99211.00;;;;2064180;28;20699;-45
2021/11/29 04:13:17;;;;;;;2.33;2.13;;;;;18.30;99217.00;;;;2078747;28;20668;-45
2021/11/29 04:14:17;;;;;;;2.77;2.40;;;;;18.50;99214.00;;;;2078332;28;20210;-45
2021/11/29 04:15:17;;;;;;;2.53;2.13;;;;;18.50;99223.00;;;;2076943;28;20252;-45
2021/11/29 04:16:18;;;;;;;2.43;2.23;;;;;18.50;99230.00;;;;2071384;28;20218;-45
2021/11/29 04:17:18;;;;;;;2.47;2.23;;;;;18.50;99225.00;;;;2071207;28;20755;-46
2021/11/29 04:18:19;;;;;;;2.33;2.03;;;;;18.50;99227.00;;;;2071418;28;20220;-45
2021/11/29 04:19:19;;;;;;;2.20;2.00;;;;;18.50;99226.00;;;;2071226;28;20214;-45
2021/11/29 04:20:20;;;;;;;3.30;2.70;;;;;18.50;99221.00;;;;2078973;28;20209;-45
2021/11/29 04:21:20;;;;;;;2.90;2.50;;;;;18.40;99229.00;;;;2078834;28;20577;-45
2021/11/29 04:22:20;;;;;;;2.63;2.10;;;;;18.50;99224.00;;;;2078407;28;20471;-46
2021/11/29 04:23:21;;;;;;;2.47;2.00;;;;;18.50;99223.00;;;;2078590;28;20408;-44
2021/11/29 04:24:24;;;;;;;3.13;2.23;;;;;18.50;99221.00;;;;2078662;28;20312;-45
2021/11/29 04:25:25;;;;;;;2.92;2.40;;;;;18.40;99220.00;;;;2078668;28;20241;-45
2021/11/29 04:26:26;;;;;;;2.50;2.30;;;;;18.40;99227.00;;;;2078873;28;20226;-45
2021/11/29 04:27:28;;;;;;;3.00;2.40;;;;;18.40;99224.00;;;;2079283;28;20213;-45
2021/11/29 04:28:29;;;;;;;2.33;2.13;;;;;18.50;99236.00;;;;2073553;28;20246;-45
2021/11/29 04:29:32;;;;;;;3.27;2.43;;;;;18.50;99223.00;;;;2069911;28;20276;-45
2021/11/29 04:30:32;;;;;;;2.15;1.95;;;;;18.50;99216.00;;;;2070609;28;20222;-45
2021/11/29 04:31:32;;;;;;;2.73;2.20;;;;;18.50;99230.00;;;;2071314;28;20213;-45
2021/11/29 04:32:33;;;;;;;2.27;1.97;;;;;18.50;99229.00;;;;2079119;28;20620;-49
2021/11/29 04:33:33;;;;;;;2.13;1.90;;;;;18.40;99236.00;;;;2078906;28;20214;-48
2021/11/29 04:34:34;;;;;;;2.37;2.17;;;;;18.50;99226.00;;;;2078948;28;20221;-47
2021/11/29 04:35:34;;;;;;;2.13;1.93;;;;;18.40;99227.00;;;;2079001;28;20229;-46
2021/11/29 04:36:35;;;;;;;2.40;2.05;;;;;18.50;99236.00;;;;2078948;28;20260;-46
2021/11/29 04:37:36;;;;;;;2.00;1.80;;;;;18.40;99230.00;;;;2078458;28;20689;-45
2021/11/29 04:38:36;;;;;;;2.20;2.00;;;;;18.50;99244.00;;;;2079092;28;20255;-45
2021/11/29 04:39:36;;;;;;;2.07;1.87;;;;;18.20;99237.00;;;;2078982;28;20272;-45
2021/11/29 04:40:37;;;;;;;2.20;2.03;;;;;18.40;99243.00;;;;2078118;28;20271;-46
2021/11/29 04:41:37;;;;;;;2.40;2.10;;;;;18.40;99238.00;;;;2072622;28;20690;-45
2021/11/29 04:42:38;;;;;;;2.53;2.00;;;;;18.40;99240.00;;;;2070021;28;20221;-45
2021/11/29 04:43:38;;;;;;;1.90;1.80;;;;;18.40;99238.00;;;;2070536;28;20206;-45
2021/11/29 04:44:39;;;;;;;2.30;2.10;;;;;18.40;99240.00;;;;2070511;28;20241;-45
2021/11/29 04:45:39;;;;;;;2.60;2.40;;;;;18.40;99239.00;;;;2070062;28;20289;-45
2021/11/29 04:46:40;;;;;;;2.60;2.20;;;;;18.40;99244.00;;;;2071340;28;20210;-45
2021/11/29 04:47:41;;;;;;;3.47;2.30;;;;;18.40;99249.00;;;;2071312;28;20211;-45
2021/11/29 04:48:41;;;;;;;2.40;2.20;;;;;18.40;99244.00;;;;2078680;28;21098;-46
2021/11/29 04:49:41;;;;;;;2.20;2.00;;;;;18.40;99249.00;;;;2079320;28;20252;-45
2021/11/29 04:50:41;;;;;;;2.20;1.90;;;;;18.40;99251.00;;;;2078032;28;20206;-45
2021/11/29 04:51:42;;;;;;;3.17;2.07;;;;;18.40;99254.00;;;;2078811;28;20213;-46
2021/11/29 04:52:43;;;;;;;2.53;2.10;;;;;18.40;99252.00;;;;2079189;28;20312;-46
2021/11/29 04:53:43;;;;;;;2.67;2.10;;;;;18.40;99247.00;;;;2072634;28;20233;-45
2021/11/29 04:54:44;;;;;;;2.03;1.90;;;;;18.40;99253.00;;;;2070308;28;20218;-45
2021/11/29 04:55:44;;;;;;;2.27;2.00;;;;;18.40;99256.00;;;;2070017;28;20222;-45
2021/11/29 04:56:44;;;;;;;2.10;1.90;;;;;18.40;99257.00;;;;2071008;28;20246;-45
2021/11/29 04:57:45;;;;;;;2.40;2.20;;;;;18.40;99249.00;;;;2071047;28;20666;-45
2021/11/29 04:58:46;;;;;;;2.25;2.05;;;;;18.40;99249.00;;;;2071366;28;20682;-45
2021/11/29 04:59:46;;;;;;;2.10;1.90;;;;;18.40;99248.00;;;;2070922;28;20230;-45
2021/11/29 05:00:51;;;;;;;2.27;2.07;;;;;18.40;99256.00;;;;2070057;28;20639;-45
2021/11/29 05:01:54;;;;;;;2.08;1.92;;;;;18.40;99252.00;;;;2070405;28;20206;-45
2021/11/29 05:02:55;;;;;;;3.13;1.90;;;;;18.40;99275.00;;;;2070360;28;20326;-45
2021/11/29 05:03:55;;;;;;;1.93;1.70;;;;;18.40;99255.00;;;;2069746;28;20689;-45
2021/11/29 05:04:56;;;;;;;1.93;1.70;;;;;18.40;99249.00;;;;2068971;28;20561;-45